createdAt,value
2023-12-16T00:01:34.971Z,-10.40
2023-12-16T00:04:02.300Z,-10.46
2023-12-16T00:06:29.596Z,-10.52
2023-12-16T00:08:56.907Z,-10.46
2023-12-16T00:11:24.041Z,-10.37
2023-12-16T00:13:51.435Z,-10.47
2023-12-16T00:16:18.762Z,-10.43
2023-12-16T00:18:46.181Z,-10.50
2023-12-16T00:21:13.370Z,-10.45
2023-12-16T00:23:41.021Z,-10.41
2023-12-16T00:26:08.026Z,-10.33
2023-12-16T00:28:35.287Z,-10.30
2023-12-16T00:31:02.593Z,-10.20
2023-12-16T00:33:30.001Z,-10.22
2023-12-16T00:35:57.015Z,-10.23
2023-12-16T00:38:24.244Z,-10.30
2023-12-16T00:40:51.387Z,-10.42
2023-12-16T00:43:18.701Z,-10.41
2023-12-16T00:45:45.952Z,-10.37
2023-12-16T00:48:13.487Z,-10.32
2023-12-16T00:50:40.761Z,-10.20
2023-12-16T00:53:08.119Z,-10.15
2023-12-16T00:55:35.193Z,-10.11
2023-12-16T00:58:02.619Z,-10.05
2023-12-16T01:00:30.018Z,-10.02
2023-12-16T01:02:59.724Z,-10.00
2023-12-16T01:05:27.633Z,-9.99
2023-12-16T01:07:54.958Z,-10.10
2023-12-16T01:10:22.642Z,-10.10
2023-12-16T01:12:49.820Z,-10.08
2023-12-16T01:15:17.285Z,-10.14
2023-12-16T01:17:44.698Z,-10.17
2023-12-16T01:20:12.305Z,-10.20
2023-12-16T01:22:39.389Z,-10.07
2023-12-16T01:25:07.279Z,-10.03
2023-12-16T01:27:34.286Z,-10.17
2023-12-16T01:30:01.681Z,-10.40
2023-12-16T01:32:32.339Z,-10.48
2023-12-16T01:34:59.758Z,-10.44
2023-12-16T01:37:27.609Z,-10.45
2023-12-16T01:39:55.299Z,-10.36
2023-12-16T01:42:22.521Z,-10.36
2023-12-16T01:44:49.906Z,-10.38
2023-12-16T01:47:18.742Z,-10.46
2023-12-16T01:49:46.113Z,-10.43
2023-12-16T01:52:13.562Z,-10.31
2023-12-16T01:54:41.088Z,-10.35
2023-12-16T01:57:09.329Z,-10.43
2023-12-16T01:59:36.780Z,-10.38
2023-12-16T02:02:04.772Z,-10.41
2023-12-16T02:04:33.157Z,-10.54
2023-12-16T02:07:00.337Z,-10.52
2023-12-16T02:09:27.967Z,-10.64
2023-12-16T02:11:55.484Z,-10.73
2023-12-16T02:14:22.799Z,-10.70
2023-12-16T02:16:50.385Z,-10.78
2023-12-16T02:19:25.859Z,-10.82
2023-12-16T02:21:56.468Z,-10.78
2023-12-16T02:24:23.756Z,-10.88
2023-12-16T02:26:50.979Z,-10.89
2023-12-16T02:29:19.101Z,-10.66
2023-12-16T02:31:46.946Z,-10.68
2023-12-16T02:34:14.530Z,-10.65
2023-12-16T02:36:41.667Z,-10.63
2023-12-16T02:39:08.927Z,-10.64
2023-12-16T02:41:36.242Z,-10.60
2023-12-16T02:44:04.652Z,-10.71
2023-12-16T02:46:31.863Z,-10.74
2023-12-16T02:48:59.003Z,-10.64
2023-12-16T02:51:26.625Z,-10.69
2023-12-16T02:53:54.821Z,-10.74
2023-12-16T02:56:22.186Z,-10.78
2023-12-16T02:58:50.194Z,-10.69
2023-12-16T03:01:17.950Z,-10.72
2023-12-16T03:03:45.512Z,-10.79
2023-12-16T03:06:12.833Z,-10.79
2023-12-16T03:08:39.950Z,-10.88
2023-12-16T03:11:07.262Z,-10.91
2023-12-16T03:13:34.413Z,-10.97
2023-12-16T03:16:01.745Z,-11.00
2023-12-16T03:18:29.008Z,-11.08
2023-12-16T03:20:56.737Z,-11.04
2023-12-16T03:23:23.919Z,-11.04
2023-12-16T03:25:51.532Z,-10.98
2023-12-16T03:28:18.783Z,-10.89
2023-12-16T03:30:46.349Z,-10.84
2023-12-16T03:33:13.567Z,-10.83
2023-12-16T03:35:40.651Z,-10.80
2023-12-16T03:38:08.424Z,-10.86
2023-12-16T03:40:35.794Z,-10.86
2023-12-16T03:43:03.219Z,-10.88
2023-12-16T03:45:30.710Z,-10.97
2023-12-16T03:47:58.145Z,-10.92
2023-12-16T03:50:25.399Z,-10.71
2023-12-16T03:52:52.747Z,-10.45
2023-12-16T03:55:19.852Z,-10.30
2023-12-16T03:57:47.069Z,-10.14
2023-12-16T04:00:14.579Z,-10.02
2023-12-16T04:02:42.088Z,-9.89
2023-12-16T04:05:10.010Z,-9.91
2023-12-16T04:07:38.365Z,-9.87
2023-12-16T04:10:06.262Z,-9.85
2023-12-16T04:12:33.601Z,-9.77
2023-12-16T04:15:00.843Z,-9.78
2023-12-16T04:17:28.122Z,-9.78
2023-12-16T04:19:56.279Z,-9.80
2023-12-16T04:22:24.011Z,-9.83
2023-12-16T04:24:52.144Z,-9.80
2023-12-16T04:27:19.634Z,-9.67
2023-12-16T04:29:46.998Z,-9.48
2023-12-16T04:32:14.215Z,-9.42
2023-12-16T04:34:41.520Z,-9.39
2023-12-16T04:37:08.574Z,-9.27
2023-12-16T04:39:35.835Z,-9.17
2023-12-16T04:42:02.995Z,-9.13
2023-12-16T04:44:30.353Z,-9.26
2023-12-16T04:46:57.614Z,-9.31
2023-12-16T04:49:24.875Z,-9.29
2023-12-16T04:51:52.237Z,-9.18
2023-12-16T04:54:19.522Z,-9.18
2023-12-16T04:56:48.972Z,-9.20
2023-12-16T04:59:16.177Z,-9.24
2023-12-16T05:01:44.215Z,-9.32
2023-12-16T05:04:11.630Z,-9.25
2023-12-16T05:06:39.120Z,-9.32
2023-12-16T05:09:11.464Z,-9.31
2023-12-16T05:11:38.772Z,-9.16
2023-12-16T05:14:05.912Z,-9.14
2023-12-16T05:16:33.156Z,-9.09
2023-12-16T05:19:01.807Z,-9.00
2023-12-16T05:21:29.052Z,-8.99
2023-12-16T05:23:56.301Z,-8.98
2023-12-16T05:26:23.450Z,-8.98
2023-12-16T05:28:50.672Z,-9.07
2023-12-16T05:31:17.951Z,-9.21
2023-12-16T05:33:45.842Z,-9.36
2023-12-16T05:36:13.071Z,-9.31
2023-12-16T05:38:40.659Z,-9.27
2023-12-16T05:41:07.789Z,-9.26
2023-12-16T05:43:35.646Z,-9.15
2023-12-16T05:46:03.070Z,-9.15
2023-12-16T05:48:30.333Z,-9.10
2023-12-16T05:50:57.564Z,-9.06
2023-12-16T05:53:24.754Z,-9.00
2023-12-16T05:55:51.941Z,-8.93
2023-12-16T05:58:21.291Z,-8.81
2023-12-16T06:00:49.540Z,-8.79
2023-12-16T06:03:16.819Z,-8.76
2023-12-16T06:05:44.240Z,-8.73
2023-12-16T06:08:11.493Z,-8.65
2023-12-16T06:10:38.614Z,-8.64
2023-12-16T06:13:05.735Z,-8.62
2023-12-16T06:15:33.045Z,-8.57
2023-12-16T06:18:05.007Z,-8.51
2023-12-16T06:20:32.365Z,-8.36
2023-12-16T06:22:59.574Z,-8.39
2023-12-16T06:25:26.771Z,-8.32
2023-12-16T06:27:54.130Z,-8.35
2023-12-16T06:30:21.458Z,-8.36
2023-12-16T06:32:48.565Z,-8.27
2023-12-16T06:35:15.781Z,-8.32
2023-12-16T06:37:42.904Z,-8.39
2023-12-16T06:40:10.425Z,-8.37
2023-12-16T06:42:37.630Z,-8.32
2023-12-16T06:45:05.904Z,-8.22
2023-12-16T06:47:33.009Z,-8.08
2023-12-16T06:50:00.208Z,-8.10
2023-12-16T06:52:27.571Z,-7.96
2023-12-16T06:54:54.898Z,-7.88
2023-12-16T06:57:22.134Z,-7.76
2023-12-16T06:59:49.276Z,-7.85
2023-12-16T07:02:16.518Z,-7.88
2023-12-16T07:04:43.804Z,-7.87
2023-12-16T07:07:10.906Z,-7.82
2023-12-16T07:09:40.402Z,-7.71
2023-12-16T07:12:08.008Z,-7.68
2023-12-16T07:14:35.719Z,-7.51
2023-12-16T07:17:03.076Z,-7.48
2023-12-16T07:19:31.451Z,-7.55
2023-12-16T07:21:59.590Z,-7.56
2023-12-16T07:24:26.892Z,-7.56
2023-12-16T07:26:54.287Z,-7.47
2023-12-16T07:29:22.080Z,-7.39
2023-12-16T07:31:50.082Z,-7.42
2023-12-16T07:34:18.138Z,-7.33
2023-12-16T07:36:45.480Z,-7.34
2023-12-16T07:39:12.765Z,-7.38
2023-12-16T07:41:39.779Z,-7.33
2023-12-16T07:44:07.049Z,-7.24
2023-12-16T07:46:34.362Z,-7.31
2023-12-16T07:49:01.701Z,-7.35
2023-12-16T07:51:29.100Z,-7.36
2023-12-16T07:53:59.061Z,-7.34
2023-12-16T07:56:28.515Z,-7.20
2023-12-16T07:58:58.984Z,-7.06
2023-12-16T08:01:26.436Z,-7.04
2023-12-16T08:03:53.960Z,-6.98
2023-12-16T08:06:21.829Z,-6.94
2023-12-16T08:08:49.176Z,-6.74
2023-12-16T08:11:16.472Z,-6.61
2023-12-16T08:13:43.587Z,-6.61
2023-12-16T08:16:12.706Z,-6.62
2023-12-16T08:18:40.647Z,-6.60
2023-12-16T08:21:08.142Z,-6.46
2023-12-16T08:23:35.781Z,-6.31
2023-12-16T08:26:03.173Z,-6.16
2023-12-16T08:28:31.425Z,-6.14
2023-12-16T08:30:59.034Z,-6.09
2023-12-16T08:33:27.096Z,-6.02
2023-12-16T08:35:54.644Z,-5.97
2023-12-16T08:38:21.948Z,-5.96
2023-12-16T08:40:49.586Z,-6.02
2023-12-16T08:43:17.497Z,-6.05
2023-12-16T08:45:44.581Z,-5.93
2023-12-16T08:48:11.909Z,-5.97
2023-12-16T08:50:39.264Z,-5.88
2023-12-16T08:53:10.418Z,-5.84
2023-12-16T08:55:38.153Z,-5.78
2023-12-16T08:58:05.796Z,-5.76
2023-12-16T09:00:32.982Z,-5.64
2023-12-16T09:03:00.249Z,-5.50
2023-12-16T09:05:30.055Z,-5.47
2023-12-16T09:07:57.375Z,-5.43
2023-12-16T09:10:24.786Z,-5.44
2023-12-16T09:12:52.000Z,-5.37
2023-12-16T09:15:20.047Z,-5.32
2023-12-16T09:17:48.761Z,-5.20
2023-12-16T09:20:16.192Z,-5.10
2023-12-16T09:22:43.488Z,-5.00
2023-12-16T09:25:11.248Z,-4.89
2023-12-16T09:27:39.524Z,-4.90
2023-12-16T09:30:07.534Z,-4.76
2023-12-16T09:32:35.893Z,-4.66
2023-12-16T09:35:03.925Z,-4.68
2023-12-16T09:37:32.918Z,-4.65
2023-12-16T09:40:00.039Z,-4.73
2023-12-16T09:42:27.687Z,-4.75
2023-12-16T09:44:58.775Z,-4.71
2023-12-16T09:47:26.480Z,-4.70
2023-12-16T09:49:55.265Z,-4.73
2023-12-16T09:52:22.580Z,-4.66
2023-12-16T09:54:50.293Z,-4.68
2023-12-16T09:57:18.337Z,-4.55
2023-12-16T09:59:46.566Z,-4.55
2023-12-16T10:02:29.133Z,-4.61
2023-12-16T10:04:58.099Z,-4.61
2023-12-16T10:07:26.426Z,-4.61
2023-12-16T10:09:54.313Z,-4.55
2023-12-16T10:12:21.864Z,-4.53
2023-12-16T10:14:50.340Z,-4.63
2023-12-16T10:17:22.055Z,-4.63
2023-12-16T10:19:50.345Z,-4.57
2023-12-16T10:22:22.002Z,-4.47
2023-12-16T10:24:49.474Z,-4.48
2023-12-16T10:27:20.956Z,-4.53
2023-12-16T10:29:58.241Z,-4.56
2023-12-16T10:32:33.972Z,-4.50
2023-12-16T10:35:03.945Z,-4.56
2023-12-16T10:37:31.567Z,-4.62
2023-12-16T10:39:59.523Z,-4.69
2023-12-16T10:42:26.989Z,-4.66
2023-12-16T10:44:54.222Z,-4.61
2023-12-16T10:47:24.815Z,-4.59
2023-12-16T10:49:57.180Z,-4.54
2023-12-16T10:52:24.594Z,-4.47
2023-12-16T10:55:00.715Z,-4.40
2023-12-16T10:57:29.531Z,-4.36
2023-12-16T11:00:08.260Z,-4.39
2023-12-16T11:02:44.644Z,-4.36
2023-12-16T11:05:21.533Z,-4.53
2023-12-16T11:07:49.547Z,-4.53
2023-12-16T11:10:16.956Z,-4.59
2023-12-16T11:12:46.814Z,-4.53
2023-12-16T11:15:14.679Z,-4.47
2023-12-16T11:17:42.979Z,-4.45
2023-12-16T11:20:17.874Z,-4.39
2023-12-16T11:22:54.722Z,-4.33
2023-12-16T11:25:23.274Z,-4.45
2023-12-16T11:27:51.612Z,-4.60
2023-12-16T11:30:22.362Z,-4.53
2023-12-16T11:32:54.609Z,-4.52
2023-12-16T11:35:48.549Z,-4.56
2023-12-16T11:38:45.334Z,-4.54
2023-12-16T11:41:39.108Z,-4.54
2023-12-16T11:44:07.543Z,-4.50
2023-12-16T11:46:36.174Z,-4.48
2023-12-16T11:49:04.690Z,-4.48
2023-12-16T11:51:36.426Z,-4.49
2023-12-16T11:54:05.177Z,-4.45
2023-12-16T11:56:33.085Z,-4.44
2023-12-16T11:59:04.516Z,-4.39
2023-12-16T12:01:33.198Z,-4.35
2023-12-16T12:04:02.229Z,-4.37
2023-12-16T12:06:30.442Z,-4.32
2023-12-16T12:08:57.906Z,-4.28
2023-12-16T12:11:25.027Z,-4.21
2023-12-16T12:13:54.029Z,-4.28
2023-12-16T12:16:22.756Z,-4.34
2023-12-16T12:18:50.420Z,-4.27
2023-12-16T12:21:17.674Z,-4.15
2023-12-16T12:23:44.989Z,-4.14
2023-12-16T12:26:12.821Z,-4.13
2023-12-16T12:28:40.160Z,-4.04
2023-12-16T12:31:09.012Z,-4.07
2023-12-16T12:33:37.049Z,-4.07
2023-12-16T12:36:04.787Z,-4.07
2023-12-16T12:38:37.030Z,-4.07
2023-12-16T12:41:06.075Z,-4.06
2023-12-16T12:43:35.452Z,-4.10
2023-12-16T12:46:09.864Z,-4.13
2023-12-16T12:48:38.620Z,-4.06
2023-12-16T12:51:07.393Z,-4.01
2023-12-16T12:53:40.194Z,-3.94
2023-12-16T12:56:08.525Z,-3.92
2023-12-16T12:58:36.314Z,-3.86
2023-12-16T13:01:06.065Z,-3.81
2023-12-16T13:03:35.331Z,-3.76
2023-12-16T13:06:07.119Z,-3.73
2023-12-16T13:08:37.540Z,-3.79
2023-12-16T13:11:05.361Z,-3.84
2023-12-16T13:13:33.647Z,-3.87
2023-12-16T13:16:01.150Z,-3.89
2023-12-16T13:18:29.278Z,-3.90
2023-12-16T13:20:58.252Z,-3.93
2023-12-16T13:23:27.652Z,-3.97
2023-12-16T13:25:56.384Z,-3.93
2023-12-16T13:28:24.370Z,-3.93
2023-12-16T13:30:56.232Z,-3.95
2023-12-16T13:33:24.893Z,-3.89
2023-12-16T13:35:52.534Z,-3.93
2023-12-16T13:38:19.970Z,-4.03
2023-12-16T13:40:52.181Z,-4.03
2023-12-16T13:43:22.142Z,-4.00
2023-12-16T13:45:51.802Z,-3.96
2023-12-16T13:48:20.655Z,-3.98
2023-12-16T13:50:48.582Z,-4.05
2023-12-16T13:53:15.936Z,-4.07
2023-12-16T13:55:43.047Z,-3.98
2023-12-16T13:58:10.442Z,-4.00
2023-12-16T14:00:37.653Z,-3.97
2023-12-16T14:03:05.057Z,-3.98
2023-12-16T14:05:32.530Z,-4.03
2023-12-16T14:07:59.898Z,-3.85
2023-12-16T14:10:27.107Z,-3.87
2023-12-16T14:12:54.278Z,-3.85
2023-12-16T14:15:21.423Z,-3.90
2023-12-16T14:17:48.773Z,-3.93
2023-12-16T14:20:15.958Z,-3.93
2023-12-16T14:22:43.292Z,-3.97
2023-12-16T14:25:11.717Z,-4.08
2023-12-16T14:27:39.510Z,-4.10
2023-12-16T14:30:08.406Z,-4.11
2023-12-16T14:32:36.059Z,-4.16
2023-12-16T14:35:05.999Z,-4.08
2023-12-16T14:37:33.589Z,-4.03
2023-12-16T14:40:00.613Z,-4.13
2023-12-16T14:42:28.081Z,-4.07
2023-12-16T14:44:56.200Z,-4.02
2023-12-16T14:47:23.538Z,-4.01
2023-12-16T14:49:50.638Z,-4.05
2023-12-16T14:52:18.168Z,-4.05
2023-12-16T14:54:45.327Z,-4.04
2023-12-16T14:57:12.588Z,-4.00
2023-12-16T14:59:39.755Z,-4.00
2023-12-16T15:02:07.049Z,-4.01
2023-12-16T15:04:35.069Z,-4.06
2023-12-16T15:07:03.581Z,-4.03
2023-12-16T15:09:33.418Z,-3.98
2023-12-16T15:12:01.059Z,-3.96
2023-12-16T15:14:28.686Z,-3.92
2023-12-16T15:16:56.261Z,-3.83
2023-12-16T15:19:23.834Z,-3.71
2023-12-16T15:21:52.819Z,-3.65
2023-12-16T15:24:20.141Z,-3.69
2023-12-16T15:26:47.421Z,-3.74
2023-12-16T15:29:15.059Z,-3.85
2023-12-16T15:31:45.159Z,-3.96
2023-12-16T15:34:13.905Z,-4.02
2023-12-16T15:36:42.570Z,-4.13
2023-12-16T15:39:12.646Z,-4.17
2023-12-16T15:41:40.585Z,-4.15
2023-12-16T15:44:10.149Z,-4.18
2023-12-16T15:46:43.919Z,-4.19
2023-12-16T15:49:11.468Z,-4.18
2023-12-16T15:51:38.976Z,-4.30
2023-12-16T15:54:06.615Z,-4.33
2023-12-16T15:56:35.339Z,-4.35
2023-12-16T15:59:02.580Z,-4.31
2023-12-16T16:01:31.776Z,-4.18
2023-12-16T16:03:59.141Z,-4.14
2023-12-16T16:06:30.526Z,-4.20
2023-12-16T16:08:58.883Z,-4.19
2023-12-16T16:11:26.122Z,-4.17
2023-12-16T16:14:02.596Z,-4.18
2023-12-16T16:16:30.183Z,-4.07
2023-12-16T16:18:57.335Z,-4.01
2023-12-16T16:21:24.722Z,-3.89
2023-12-16T16:23:52.035Z,-3.85
2023-12-16T16:26:19.328Z,-3.84
2023-12-16T16:28:46.492Z,-3.77
2023-12-16T16:31:15.577Z,-3.69
2023-12-16T16:33:43.269Z,-3.53
2023-12-16T16:36:10.843Z,-3.56
2023-12-16T16:38:38.178Z,-3.61
2023-12-16T16:41:06.159Z,-3.55
2023-12-16T16:43:33.420Z,-3.57
2023-12-16T16:46:00.642Z,-3.51
2023-12-16T16:48:27.940Z,-3.53
2023-12-16T16:50:55.213Z,-3.50
2023-12-16T16:53:22.313Z,-3.38
2023-12-16T16:55:49.497Z,-3.38
2023-12-16T16:58:17.320Z,-3.41
2023-12-16T17:00:44.637Z,-3.44
2023-12-16T17:03:12.025Z,-3.41
2023-12-16T17:05:39.403Z,-3.45
2023-12-16T17:08:06.751Z,-3.39
2023-12-16T17:10:35.604Z,-3.36
2023-12-16T17:13:04.951Z,-3.40
2023-12-16T17:15:32.906Z,-3.36
2023-12-16T17:18:00.082Z,-3.37
2023-12-16T17:20:27.312Z,-3.36
2023-12-16T17:22:55.005Z,-3.26
2023-12-16T17:25:22.532Z,-3.15
2023-12-16T17:27:49.823Z,-3.26
2023-12-16T17:30:17.236Z,-3.36
2023-12-16T17:32:44.630Z,-3.47
2023-12-16T17:35:11.918Z,-3.43
2023-12-16T17:37:39.362Z,-3.37
2023-12-16T17:40:07.490Z,-3.38
2023-12-16T17:42:34.673Z,-3.36
2023-12-16T17:45:02.275Z,-3.36
2023-12-16T17:47:31.604Z,-3.44
2023-12-16T17:49:59.141Z,-3.37
2023-12-16T17:52:26.413Z,-3.42
2023-12-16T17:54:54.631Z,-3.41
2023-12-16T17:57:21.892Z,-3.47
2023-12-16T17:59:49.432Z,-3.45
2023-12-16T18:02:17.236Z,-3.36
2023-12-16T18:04:44.515Z,-3.28
2023-12-16T18:07:12.324Z,-3.19
2023-12-16T18:09:39.578Z,-3.15
2023-12-16T18:12:07.434Z,-3.15
2023-12-16T18:14:37.459Z,-3.18
2023-12-16T18:17:05.705Z,-3.21
2023-12-16T18:19:33.576Z,-3.21
2023-12-16T18:22:00.867Z,-3.22
2023-12-16T18:24:28.132Z,-3.21
2023-12-16T18:26:55.412Z,-3.20
2023-12-16T18:29:24.372Z,-3.16
2023-12-16T18:31:51.575Z,-3.20
2023-12-16T18:34:18.931Z,-3.12
2023-12-16T18:36:46.534Z,-3.08
2023-12-16T18:39:14.383Z,-3.00
2023-12-16T18:41:41.644Z,-2.97
2023-12-16T18:44:10.086Z,-2.89
2023-12-16T18:46:40.352Z,-2.96
2023-12-16T18:49:07.980Z,-3.01
2023-12-16T18:51:35.476Z,-3.07
2023-12-16T18:54:03.191Z,-3.07
2023-12-16T18:56:34.309Z,-2.99
2023-12-16T18:59:02.911Z,-2.95
2023-12-16T19:01:32.891Z,-2.94
2023-12-16T19:04:00.708Z,-2.90
2023-12-16T19:06:27.932Z,-2.89
2023-12-16T19:08:55.117Z,-2.95
2023-12-16T19:11:22.519Z,-3.01
2023-12-16T19:13:50.005Z,-3.05
2023-12-16T19:16:18.374Z,-3.03
2023-12-16T19:18:46.195Z,-3.02
2023-12-16T19:21:13.701Z,-2.98
2023-12-16T19:23:40.820Z,-3.02
2023-12-16T19:26:08.226Z,-2.90
2023-12-16T19:28:35.642Z,-2.96
2023-12-16T19:31:03.905Z,-3.02
2023-12-16T19:33:31.628Z,-2.98
2023-12-16T19:35:59.012Z,-2.99
2023-12-16T19:38:26.910Z,-3.02
2023-12-16T19:40:54.057Z,-3.13
2023-12-16T19:43:21.232Z,-3.18
2023-12-16T19:45:48.716Z,-3.14
2023-12-16T19:48:16.251Z,-3.09
2023-12-16T19:50:44.056Z,-3.05
2023-12-16T19:53:11.259Z,-3.03
2023-12-16T19:55:38.338Z,-3.06
2023-12-16T19:58:06.468Z,-3.09
2023-12-16T20:00:35.348Z,-3.20
2023-12-16T20:03:02.942Z,-3.21
2023-12-16T20:05:30.290Z,-3.17
2023-12-16T20:07:57.505Z,-3.13
2023-12-16T20:10:25.050Z,-3.15
2023-12-16T20:12:52.282Z,-3.12
2023-12-16T20:15:19.622Z,-3.01
2023-12-16T20:17:47.448Z,-2.99
2023-12-16T20:20:15.462Z,-2.98
2023-12-16T20:22:43.139Z,-3.02
2023-12-16T20:25:10.427Z,-3.02
2023-12-16T20:27:37.971Z,-2.98
2023-12-16T20:30:06.341Z,-2.94
2023-12-16T20:32:36.683Z,-3.00
2023-12-16T20:35:04.387Z,-3.04
2023-12-16T20:37:33.375Z,-3.06
2023-12-16T20:40:19.580Z,-3.10
2023-12-16T20:42:46.965Z,-3.22
2023-12-16T20:45:14.409Z,-3.29
2023-12-16T20:47:42.159Z,-3.30
2023-12-16T20:50:09.980Z,-3.42
2023-12-16T20:52:38.144Z,-3.57
2023-12-16T20:55:05.632Z,-3.59
2023-12-16T20:57:34.962Z,-3.45
2023-12-16T21:00:02.472Z,-3.52
2023-12-16T21:02:33.074Z,-3.69
2023-12-16T21:05:00.384Z,-3.75
2023-12-16T21:07:27.782Z,-3.81
2023-12-16T21:09:54.961Z,-3.89
2023-12-16T21:12:23.144Z,-3.85
2023-12-16T21:14:50.580Z,-3.83
2023-12-16T21:17:19.510Z,-3.77
2023-12-16T21:19:46.770Z,-3.75
2023-12-16T21:22:14.875Z,-3.76
2023-12-16T21:24:42.089Z,-3.79
2023-12-16T21:27:10.878Z,-3.75
2023-12-16T21:29:38.517Z,-3.69
2023-12-16T21:32:06.342Z,-3.62
2023-12-16T21:34:34.118Z,-3.66
2023-12-16T21:37:01.656Z,-3.60
2023-12-16T21:39:29.892Z,-3.49
2023-12-16T21:41:57.259Z,-3.49
2023-12-16T21:44:24.374Z,-3.57
2023-12-16T21:46:51.544Z,-3.54
2023-12-16T21:49:19.005Z,-3.53
2023-12-16T21:51:46.559Z,-3.51
2023-12-16T21:54:13.898Z,-3.49
2023-12-16T21:56:41.307Z,-3.41
2023-12-16T21:59:08.473Z,-3.43
2023-12-16T22:01:35.765Z,-3.47
2023-12-16T22:04:03.588Z,-3.49
2023-12-16T22:06:31.008Z,-3.48
2023-12-16T22:08:58.562Z,-3.40
2023-12-16T22:11:25.589Z,-3.42
2023-12-16T22:13:53.219Z,-3.43
2023-12-16T22:16:20.673Z,-3.41
2023-12-16T22:18:48.020Z,-3.35
2023-12-16T22:21:15.238Z,-3.37
2023-12-16T22:23:42.527Z,-3.39
2023-12-16T22:26:09.905Z,-3.34
2023-12-16T22:28:37.106Z,-3.30
2023-12-16T22:31:04.623Z,-3.38
2023-12-16T22:33:32.022Z,-3.47
2023-12-16T22:35:59.238Z,-3.47
2023-12-16T22:38:26.467Z,-3.49
2023-12-16T22:40:55.882Z,-3.48
2023-12-16T22:43:28.531Z,-3.45
2023-12-16T22:45:56.712Z,-3.41
2023-12-16T22:48:25.238Z,-3.41
2023-12-16T22:50:52.786Z,-3.43
2023-12-16T22:53:20.024Z,-3.48
2023-12-16T22:55:47.187Z,-3.45
2023-12-16T22:58:14.331Z,-3.50
2023-12-16T23:00:41.680Z,-3.48
2023-12-16T23:03:08.966Z,-3.48
2023-12-16T23:05:36.704Z,-3.55
2023-12-16T23:08:03.884Z,-3.58
2023-12-16T23:10:31.191Z,-3.47
2023-12-16T23:12:58.666Z,-3.49
2023-12-16T23:15:25.884Z,-3.51
2023-12-16T23:17:53.990Z,-3.51
2023-12-16T23:20:21.467Z,-3.46
2023-12-16T23:22:48.573Z,-3.48
2023-12-16T23:25:16.135Z,-3.50
2023-12-16T23:27:43.608Z,-3.46
2023-12-16T23:30:11.580Z,-3.42
2023-12-16T23:32:38.973Z,-3.43
2023-12-16T23:35:06.632Z,-3.46
2023-12-16T23:37:33.799Z,-3.47
2023-12-16T23:40:00.923Z,-3.43
2023-12-16T23:42:28.206Z,-3.41
2023-12-16T23:44:55.414Z,-3.38
2023-12-16T23:47:22.814Z,-3.37
2023-12-16T23:49:50.035Z,-3.34
2023-12-16T23:52:17.420Z,-3.31
2023-12-16T23:54:44.526Z,-3.41
2023-12-16T23:57:13.125Z,-3.43
2023-12-16T23:59:40.746Z,-3.41
